createdAt,value
2023-05-19T00:00:22.275Z,1014.26
2023-05-19T00:01:22.233Z,1014.27
2023-05-19T00:02:22.263Z,1014.27
2023-05-19T00:03:22.274Z,1014.26
2023-05-19T00:04:22.236Z,1014.27
2023-05-19T00:05:22.229Z,1014.27
2023-05-19T00:06:22.248Z,1014.26
2023-05-19T00:07:22.145Z,1014.27
2023-05-19T00:08:22.164Z,1014.27
2023-05-19T00:09:22.157Z,1014.29
2023-05-19T00:10:22.126Z,1014.30
2023-05-19T00:11:22.142Z,1014.29
2023-05-19T00:12:22.102Z,1014.32
2023-05-19T00:13:22.089Z,1014.33
2023-05-19T00:14:22.128Z,1014.33
2023-05-19T00:15:22.072Z,1014.35
2023-05-19T00:16:22.192Z,1014.33
2023-05-19T00:17:22.284Z,1014.31
2023-05-19T00:18:22.092Z,1014.31
2023-05-19T00:19:22.138Z,1014.31
2023-05-19T00:20:22.008Z,1014.31
2023-05-19T00:21:22.040Z,1014.31
2023-05-19T00:22:22.077Z,1014.30
2023-05-19T00:23:21.978Z,1014.29
2023-05-19T00:24:22.013Z,1014.27
2023-05-19T00:25:21.973Z,1014.26
2023-05-19T00:26:21.961Z,1014.26
2023-05-19T00:27:21.941Z,1014.27
2023-05-19T00:28:21.916Z,1014.28
2023-05-19T00:29:22.075Z,1014.26
2023-05-19T00:30:21.926Z,1014.24
2023-05-19T00:31:21.949Z,1014.25
2023-05-19T00:32:21.981Z,1014.23
2023-05-19T00:33:21.882Z,1014.21
2023-05-19T00:34:21.902Z,1014.20
2023-05-19T00:35:21.852Z,1014.20
2023-05-19T00:36:21.835Z,1014.18
2023-05-19T00:37:21.879Z,1014.16
2023-05-19T00:38:21.827Z,1014.16
2023-05-19T00:39:22.749Z,1014.19
2023-05-19T00:40:21.821Z,1014.17
2023-05-19T00:41:21.813Z,1014.12
2023-05-19T00:42:21.795Z,1014.15
2023-05-19T00:43:21.772Z,1014.18
2023-05-19T00:44:21.763Z,1014.14
2023-05-19T00:45:21.780Z,1014.11
2023-05-19T00:46:21.751Z,1014.09
2023-05-19T00:47:21.805Z,1014.08
2023-05-19T00:48:21.728Z,1014.09
2023-05-19T00:49:21.770Z,1014.07
2023-05-19T00:50:21.715Z,1014.07
2023-05-19T00:51:21.731Z,1014.04
2023-05-19T00:52:21.697Z,1014.02
2023-05-19T00:53:21.665Z,1014.01
2023-05-19T00:54:21.678Z,1014.02
2023-05-19T00:55:21.692Z,1014.01
2023-05-19T00:56:21.689Z,1014.02
2023-05-19T00:57:21.628Z,1013.96
2023-05-19T00:58:21.629Z,1013.99
2023-05-19T00:59:21.667Z,1013.96
2023-05-19T01:00:21.583Z,1013.94
2023-05-19T01:01:21.918Z,1013.96
2023-05-19T01:02:21.752Z,1013.95
2023-05-19T01:03:21.654Z,1013.89
2023-05-19T01:04:21.576Z,1013.93
2023-05-19T01:05:21.560Z,1013.94
2023-05-19T01:06:21.609Z,1013.91
2023-05-19T01:07:21.553Z,1013.87
2023-05-19T01:08:21.520Z,1013.89
2023-05-19T01:09:21.514Z,1013.91
2023-05-19T01:10:21.482Z,1013.89
2023-05-19T01:11:21.577Z,1013.93
2023-05-19T01:12:21.485Z,1013.93
2023-05-19T01:13:21.511Z,1013.94
2023-05-19T01:14:21.452Z,1013.92
2023-05-19T01:15:21.438Z,1013.93
2023-05-19T01:16:21.471Z,1013.94
2023-05-19T01:17:21.522Z,1013.91
2023-05-19T01:18:21.424Z,1013.94
2023-05-19T01:19:21.507Z,1013.92
2023-05-19T01:20:21.471Z,1013.91
2023-05-19T01:21:21.410Z,1013.92
2023-05-19T01:22:21.379Z,1013.93
2023-05-19T01:23:21.398Z,1013.90
2023-05-19T01:24:21.370Z,1013.91
2023-05-19T01:25:21.371Z,1013.90
2023-05-19T01:26:21.310Z,1013.90
2023-05-19T01:27:21.341Z,1013.91
2023-05-19T01:28:21.386Z,1013.91
2023-05-19T01:29:21.322Z,1013.92
2023-05-19T01:30:21.293Z,1013.92
2023-05-19T01:31:21.291Z,1013.93
2023-05-19T01:32:21.324Z,1013.93
2023-05-19T01:33:21.255Z,1013.93
2023-05-19T01:34:21.246Z,1013.95
2023-05-19T01:35:21.233Z,1013.95
2023-05-19T01:36:21.237Z,1013.96
2023-05-19T01:37:21.240Z,1013.95
2023-05-19T01:38:21.252Z,1013.94
2023-05-19T01:39:21.330Z,1013.96
2023-05-19T01:40:21.183Z,1013.97
2023-05-19T01:41:21.220Z,1013.93
2023-05-19T01:42:21.175Z,1013.97
2023-05-19T01:43:21.178Z,1013.97
2023-05-19T01:44:21.145Z,1013.95
2023-05-19T01:45:21.154Z,1013.96
2023-05-19T01:46:21.209Z,1013.96
2023-05-19T01:47:21.138Z,1013.93
2023-05-19T01:48:21.151Z,1013.95
2023-05-19T01:49:21.096Z,1013.96
2023-05-19T01:50:21.098Z,1013.97
2023-05-19T01:51:21.107Z,1013.98
2023-05-19T01:52:21.100Z,1013.99
2023-05-19T01:53:21.138Z,1013.99
2023-05-19T01:54:21.038Z,1013.99
2023-05-19T01:55:21.085Z,1013.99
2023-05-19T01:56:21.016Z,1013.99
2023-05-19T01:57:21.039Z,1013.99
2023-05-19T01:58:21.019Z,1013.98
2023-05-19T01:59:21.673Z,1013.99
2023-05-19T02:00:21.458Z,1013.98
2023-05-19T02:01:21.009Z,1013.99
2023-05-19T02:02:20.960Z,1014.00
2023-05-19T02:03:21.021Z,1014.01
2023-05-19T02:04:21.052Z,1014.01
2023-05-19T02:05:20.958Z,1014.02
2023-05-19T02:06:21.020Z,1014.02
2023-05-19T02:07:21.799Z,1014.03
2023-05-19T02:08:21.035Z,1014.03
2023-05-19T02:09:21.043Z,1014.04
2023-05-19T02:10:20.933Z,1014.04
2023-05-19T02:11:21.167Z,1014.05
2023-05-19T02:12:20.886Z,1014.06
2023-05-19T02:13:20.883Z,1014.07
2023-05-19T02:14:20.890Z,1014.07
2023-05-19T02:15:20.853Z,1014.07
2023-05-19T02:16:21.105Z,1014.07
2023-05-19T02:17:20.868Z,1014.06
2023-05-19T02:18:20.833Z,1014.06
2023-05-19T02:19:21.013Z,1014.05
2023-05-19T02:20:20.856Z,1014.05
2023-05-19T02:21:20.832Z,1014.05
2023-05-19T02:22:20.750Z,1014.05
2023-05-19T02:23:20.851Z,1014.05
2023-05-19T02:24:20.731Z,1014.05
2023-05-19T02:25:20.741Z,1014.05
2023-05-19T02:26:20.769Z,1014.05
2023-05-19T02:27:20.748Z,1014.05
2023-05-19T02:28:20.685Z,1014.04
2023-05-19T02:29:20.690Z,1014.03
2023-05-19T02:30:21.181Z,1014.03
2023-05-19T02:31:20.798Z,1014.02
2023-05-19T02:32:20.711Z,1014.01
2023-05-19T02:33:20.710Z,1014.01
2023-05-19T02:34:20.627Z,1014.01
2023-05-19T02:35:20.634Z,1014.01
2023-05-19T02:36:20.623Z,1014.00
2023-05-19T02:37:20.602Z,1013.99
2023-05-19T02:38:20.607Z,1013.98
2023-05-19T02:39:20.623Z,1013.97
2023-05-19T02:40:20.645Z,1013.97
2023-05-19T02:41:20.556Z,1013.96
2023-05-19T02:42:20.566Z,1013.95
2023-05-19T02:43:20.566Z,1013.93
2023-05-19T02:44:20.572Z,1013.92
2023-05-19T02:45:20.574Z,1013.91
2023-05-19T02:46:20.561Z,1013.89
2023-05-19T02:47:20.501Z,1013.88
2023-05-19T02:48:20.504Z,1013.87
2023-05-19T02:49:20.486Z,1013.85
2023-05-19T02:50:20.527Z,1013.84
2023-05-19T02:51:20.502Z,1013.83
2023-05-19T02:52:20.452Z,1013.83
2023-05-19T02:53:20.459Z,1013.84
2023-05-19T02:54:20.486Z,1013.83
2023-05-19T02:55:20.354Z,1013.83
2023-05-19T02:56:20.423Z,1013.82
2023-05-19T02:57:20.433Z,1013.82
2023-05-19T02:58:20.367Z,1013.82
2023-05-19T02:59:20.364Z,1013.81
2023-05-19T03:00:20.362Z,1013.81
2023-05-19T03:01:20.432Z,1013.81
2023-05-19T03:02:20.371Z,1013.80
2023-05-19T03:03:20.311Z,1013.81
2023-05-19T03:04:20.272Z,1013.80
2023-05-19T03:05:20.264Z,1013.79
2023-05-19T03:06:20.286Z,1013.79
2023-05-19T03:07:20.228Z,1013.78
2023-05-19T03:08:20.234Z,1013.78
2023-05-19T03:09:20.313Z,1013.78
2023-05-19T03:10:20.215Z,1013.79
2023-05-19T03:11:20.224Z,1013.79
2023-05-19T03:12:20.183Z,1013.80
2023-05-19T03:13:20.240Z,1013.81
2023-05-19T03:14:20.164Z,1013.81
2023-05-19T03:15:20.150Z,1013.82
2023-05-19T03:16:20.254Z,1013.82
2023-05-19T03:17:20.218Z,1013.82
2023-05-19T03:18:20.231Z,1013.83
2023-05-19T03:19:20.310Z,1013.85
2023-05-19T03:20:20.109Z,1013.86
2023-05-19T03:21:20.187Z,1013.87
2023-05-19T03:22:20.099Z,1013.88
2023-05-19T03:23:20.112Z,1013.87
2023-05-19T03:24:20.068Z,1013.87
2023-05-19T03:25:20.085Z,1013.85
2023-05-19T03:26:20.111Z,1013.85
2023-05-19T03:27:20.027Z,1013.84
2023-05-19T03:28:20.012Z,1013.85
2023-05-19T03:29:20.017Z,1013.85
2023-05-19T03:30:20.018Z,1013.86
2023-05-19T03:31:20.057Z,1013.85
2023-05-19T03:32:20.023Z,1013.86
2023-05-19T03:33:20.130Z,1013.87
2023-05-19T03:34:19.972Z,1013.88
2023-05-19T03:35:19.970Z,1013.90
2023-05-19T03:36:19.983Z,1013.90
2023-05-19T03:37:19.940Z,1013.91
2023-05-19T03:38:19.945Z,1013.91
2023-05-19T03:39:19.977Z,1013.91
2023-05-19T03:40:19.909Z,1013.91
2023-05-19T03:41:19.953Z,1013.91
2023-05-19T03:42:20.193Z,1013.92
2023-05-19T03:43:19.917Z,1013.93
2023-05-19T03:44:19.870Z,1013.94
2023-05-19T03:45:19.878Z,1013.95
2023-05-19T03:46:20.007Z,1013.95
2023-05-19T03:47:20.129Z,1013.94
2023-05-19T03:48:21.286Z,1013.93
2023-05-19T03:49:19.932Z,1013.92
2023-05-19T03:50:19.788Z,1013.92
2023-05-19T03:51:19.792Z,1013.90
2023-05-19T03:52:19.792Z,1013.90
2023-05-19T03:53:19.762Z,1013.90
2023-05-19T03:54:19.770Z,1013.89
2023-05-19T03:55:19.775Z,1013.88
2023-05-19T03:56:19.722Z,1013.88
2023-05-19T03:57:19.775Z,1013.88
2023-05-19T03:58:19.722Z,1013.87
2023-05-19T03:59:19.709Z,1013.88
2023-05-19T04:00:19.704Z,1013.88
2023-05-19T04:01:19.695Z,1013.89
2023-05-19T04:02:19.749Z,1013.88
2023-05-19T04:03:19.842Z,1013.88
2023-05-19T04:04:19.744Z,1013.88
2023-05-19T04:05:19.679Z,1013.88
2023-05-19T04:06:19.653Z,1013.89
2023-05-19T04:07:19.624Z,1013.89
2023-05-19T04:08:19.632Z,1013.89
2023-05-19T04:09:19.597Z,1013.91
2023-05-19T04:10:19.621Z,1013.91
2023-05-19T04:11:19.583Z,1013.91
2023-05-19T04:12:19.693Z,1013.92
2023-05-19T04:13:19.593Z,1013.93
2023-05-19T04:14:19.551Z,1013.94
2023-05-19T04:15:19.555Z,1013.95
2023-05-19T04:16:19.721Z,1013.96
2023-05-19T04:17:19.548Z,1013.96
2023-05-19T04:18:19.529Z,1013.98
2023-05-19T04:19:19.615Z,1013.99
2023-05-19T04:20:19.482Z,1014.00
2023-05-19T04:21:19.487Z,1014.01
2023-05-19T04:22:19.489Z,1014.01
2023-05-19T04:23:19.499Z,1014.01
2023-05-19T04:24:19.497Z,1014.02
2023-05-19T04:25:19.457Z,1014.03
2023-05-19T04:26:19.476Z,1014.02
2023-05-19T04:27:19.439Z,1014.00
2023-05-19T04:28:19.427Z,1014.01
2023-05-19T04:29:19.427Z,1014.00
2023-05-19T04:30:19.413Z,1014.00
2023-05-19T04:31:19.441Z,1013.99
2023-05-19T04:32:19.364Z,1014.01
2023-05-19T04:33:19.426Z,1014.00
2023-05-19T04:34:19.340Z,1014.01
2023-05-19T04:35:19.348Z,1014.00
2023-05-19T04:36:19.339Z,1014.02
2023-05-19T04:37:19.322Z,1014.03
2023-05-19T04:38:19.360Z,1014.03
2023-05-19T04:39:19.294Z,1014.05
2023-05-19T04:40:19.290Z,1014.06
2023-05-19T04:41:19.326Z,1014.08
2023-05-19T04:42:19.366Z,1014.10
2023-05-19T04:43:19.273Z,1014.10
2023-05-19T04:44:19.301Z,1014.11
2023-05-19T04:45:19.230Z,1014.12
2023-05-19T04:46:19.849Z,1014.13
2023-05-19T04:47:19.226Z,1014.14
2023-05-19T04:48:19.199Z,1014.14
2023-05-19T04:49:19.215Z,1014.14
2023-05-19T04:50:19.208Z,1014.14
2023-05-19T04:51:19.322Z,1014.14
2023-05-19T04:52:19.184Z,1014.14
2023-05-19T04:53:19.155Z,1014.13
2023-05-19T04:54:19.239Z,1014.13
2023-05-19T04:55:19.134Z,1014.13
2023-05-19T04:56:19.154Z,1014.12
2023-05-19T04:57:19.177Z,1014.11
2023-05-19T04:58:19.137Z,1014.10
2023-05-19T04:59:19.101Z,1014.10
2023-05-19T05:00:19.103Z,1014.09
2023-05-19T05:01:19.290Z,1014.09
2023-05-19T05:02:19.221Z,1014.09
2023-05-19T05:03:19.129Z,1014.09
2023-05-19T05:04:19.039Z,1014.09
2023-05-19T05:05:19.107Z,1014.09
2023-05-19T05:06:19.015Z,1014.09
2023-05-19T05:07:19.019Z,1014.08
2023-05-19T05:08:19.018Z,1014.08
2023-05-19T05:09:18.969Z,1014.07
2023-05-19T05:10:19.236Z,1014.06
2023-05-19T05:11:19.117Z,1014.07
2023-05-19T05:12:19.086Z,1014.08
2023-05-19T05:13:18.958Z,1014.09
2023-05-19T05:14:18.952Z,1014.10
2023-05-19T05:15:18.920Z,1014.11
2023-05-19T05:16:19.060Z,1014.12
2023-05-19T05:17:18.905Z,1014.11
2023-05-19T05:18:18.907Z,1014.11
2023-05-19T05:19:18.924Z,1014.11
2023-05-19T05:20:18.925Z,1014.11
2023-05-19T05:21:18.862Z,1014.11
2023-05-19T05:22:18.874Z,1014.13
2023-05-19T05:23:18.919Z,1014.12
2023-05-19T05:24:19.142Z,1014.11
2023-05-19T05:25:18.840Z,1014.10
2023-05-19T05:26:18.816Z,1014.10
2023-05-19T05:27:18.795Z,1014.09
2023-05-19T05:28:18.793Z,1014.09
2023-05-19T05:29:18.849Z,1014.09
2023-05-19T05:30:18.764Z,1014.09
2023-05-19T05:31:18.751Z,1014.09
2023-05-19T05:32:18.773Z,1014.07
2023-05-19T05:33:18.931Z,1014.07
2023-05-19T05:34:18.810Z,1014.07
2023-05-19T05:35:18.743Z,1014.07
2023-05-19T05:36:18.718Z,1014.08
2023-05-19T05:37:18.687Z,1014.08
2023-05-19T05:38:18.724Z,1014.07
2023-05-19T05:39:18.703Z,1014.05
2023-05-19T05:40:18.679Z,1014.04
2023-05-19T05:41:18.697Z,1014.06
2023-05-19T05:42:18.679Z,1014.06
2023-05-19T05:43:18.674Z,1014.05
2023-05-19T05:44:18.648Z,1014.04
2023-05-19T05:45:18.605Z,1014.05
2023-05-19T05:46:18.688Z,1014.06
2023-05-19T05:47:18.594Z,1014.04
2023-05-19T05:48:18.584Z,1014.03
2023-05-19T05:49:18.567Z,1014.03
2023-05-19T05:50:18.611Z,1014.02
2023-05-19T05:51:18.558Z,1014.01
2023-05-19T05:52:18.550Z,1014.00
2023-05-19T05:53:18.533Z,1013.99
2023-05-19T05:54:18.516Z,1013.99
2023-05-19T05:55:18.541Z,1014.00
2023-05-19T05:56:18.564Z,1013.99
2023-05-19T05:57:18.492Z,1013.99
2023-05-19T05:58:18.471Z,1013.98
2023-05-19T05:59:18.465Z,1013.98
2023-05-19T06:00:18.457Z,1013.98
2023-05-19T06:01:18.547Z,1013.95
2023-05-19T06:02:18.527Z,1013.96
2023-05-19T06:03:18.590Z,1013.94
2023-05-19T06:04:18.527Z,1013.94
2023-05-19T06:05:18.462Z,1013.94
2023-05-19T06:06:18.431Z,1013.93
2023-05-19T06:07:18.406Z,1013.94
2023-05-19T06:08:18.434Z,1013.92
2023-05-19T06:09:18.381Z,1013.91
2023-05-19T06:10:18.373Z,1013.91
2023-05-19T06:11:18.350Z,1013.91
2023-05-19T06:12:18.361Z,1013.89
2023-05-19T06:13:18.340Z,1013.90
2023-05-19T06:14:18.322Z,1013.91
2023-05-19T06:15:18.301Z,1013.91
2023-05-19T06:16:18.443Z,1013.93
2023-05-19T06:17:18.297Z,1013.90
2023-05-19T06:18:18.278Z,1013.91
2023-05-19T06:19:18.417Z,1013.94
2023-05-19T06:20:18.278Z,1013.95
2023-05-19T06:21:18.257Z,1013.95
2023-05-19T06:22:18.224Z,1013.97
2023-05-19T06:23:18.312Z,1013.92
2023-05-19T06:24:18.242Z,1013.94
2023-05-19T06:25:18.238Z,1013.95
2023-05-19T06:26:18.228Z,1013.94
2023-05-19T06:27:18.237Z,1013.94
2023-05-19T06:28:18.175Z,1013.94
2023-05-19T06:29:18.155Z,1013.90
2023-05-19T06:30:18.176Z,1013.90
2023-05-19T06:31:18.218Z,1013.90
2023-05-19T06:32:18.166Z,1013.88
2023-05-19T06:33:18.214Z,1013.87
2023-05-19T06:34:18.126Z,1013.87
2023-05-19T06:35:18.115Z,1013.87
2023-05-19T06:36:18.114Z,1013.89
2023-05-19T06:37:18.073Z,1013.94
2023-05-19T06:38:18.134Z,1013.91
2023-05-19T06:39:18.082Z,1013.94
2023-05-19T06:40:18.050Z,1013.92
2023-05-19T06:41:18.101Z,1013.93
2023-05-19T06:42:18.048Z,1013.92
2023-05-19T06:43:18.149Z,1013.90
2023-05-19T06:44:20.440Z,1013.91
2023-05-19T06:45:18.027Z,1013.90
2023-05-19T06:46:18.090Z,1013.90
2023-05-19T06:47:18.056Z,1013.90
2023-05-19T06:48:18.012Z,1013.92
2023-05-19T06:49:18.017Z,1013.92
2023-05-19T06:50:17.956Z,1013.91
2023-05-19T06:51:17.997Z,1013.94
2023-05-19T06:52:18.238Z,1013.95
2023-05-19T06:53:17.982Z,1013.96
2023-05-19T06:54:17.920Z,1013.95
2023-05-19T06:55:17.905Z,1013.96
2023-05-19T06:56:17.941Z,1013.93
2023-05-19T06:57:17.907Z,1013.94
2023-05-19T06:58:17.865Z,1013.91
2023-05-19T06:59:17.870Z,1013.92
2023-05-19T07:00:18.782Z,1013.91
2023-05-19T07:01:17.871Z,1013.90
2023-05-19T07:02:17.884Z,1013.91
2023-05-19T07:03:18.047Z,1013.92
2023-05-19T07:04:17.841Z,1013.92
2023-05-19T07:05:17.820Z,1013.92
2023-05-19T07:06:17.871Z,1013.92
2023-05-19T07:07:18.060Z,1013.93
2023-05-19T07:08:17.771Z,1013.92
2023-05-19T07:09:17.804Z,1013.92
2023-05-19T07:10:17.918Z,1013.92
2023-05-19T07:11:17.767Z,1013.89
2023-05-19T07:12:17.737Z,1013.88
2023-05-19T07:13:17.746Z,1013.86
2023-05-19T07:14:17.745Z,1013.87
2023-05-19T07:15:17.709Z,1013.87
2023-05-19T07:16:17.756Z,1013.87
2023-05-19T07:17:17.706Z,1013.85
2023-05-19T07:18:17.678Z,1013.84
2023-05-19T07:19:17.681Z,1013.85
2023-05-19T07:20:17.893Z,1013.81
2023-05-19T07:21:17.689Z,1013.80
2023-05-19T07:22:17.670Z,1013.82
2023-05-19T07:23:17.777Z,1013.78
2023-05-19T07:24:17.624Z,1013.80
2023-05-19T07:25:17.636Z,1013.77
2023-05-19T07:26:17.623Z,1013.74
2023-05-19T07:27:17.600Z,1013.77
2023-05-19T07:28:17.620Z,1013.78
2023-05-19T07:29:17.561Z,1013.77
2023-05-19T07:30:17.582Z,1013.75
2023-05-19T07:31:17.626Z,1013.75
2023-05-19T07:32:17.622Z,1013.78
2023-05-19T07:33:17.551Z,1013.75
2023-05-19T07:34:17.513Z,1013.75
2023-05-19T07:35:17.556Z,1013.77
2023-05-19T07:36:17.504Z,1013.74
2023-05-19T07:37:17.502Z,1013.77
2023-05-19T07:38:17.488Z,1013.74
2023-05-19T07:39:17.689Z,1013.74
2023-05-19T07:40:17.466Z,1013.74
2023-05-19T07:41:17.459Z,1013.73
2023-05-19T07:42:17.503Z,1013.72
2023-05-19T07:43:17.454Z,1013.73
2023-05-19T07:44:17.415Z,1013.72
2023-05-19T07:45:17.430Z,1013.74
2023-05-19T07:46:17.486Z,1013.73
2023-05-19T07:47:17.523Z,1013.72
2023-05-19T07:48:17.442Z,1013.74
2023-05-19T07:49:17.452Z,1013.73
2023-05-19T07:50:17.480Z,1013.70
2023-05-19T07:51:17.432Z,1013.70
2023-05-19T07:52:17.368Z,1013.66
2023-05-19T07:53:17.333Z,1013.66
2023-05-19T07:54:17.443Z,1013.66
2023-05-19T07:55:17.357Z,1013.64
2023-05-19T07:56:17.309Z,1013.65
2023-05-19T07:57:17.278Z,1013.66
2023-05-19T07:58:17.283Z,1013.66
2023-05-19T07:59:17.328Z,1013.64
2023-05-19T08:00:17.314Z,1013.65
2023-05-19T08:01:17.261Z,1013.70
2023-05-19T08:02:17.291Z,1013.68
2023-05-19T08:03:17.370Z,1013.70
2023-05-19T08:04:17.283Z,1013.70
2023-05-19T08:05:17.242Z,1013.67
2023-05-19T08:06:17.198Z,1013.67
2023-05-19T08:07:17.184Z,1013.65
2023-05-19T08:08:17.270Z,1013.65
2023-05-19T08:09:17.170Z,1013.65
2023-05-19T08:10:17.201Z,1013.63
2023-05-19T08:11:17.165Z,1013.63
2023-05-19T08:12:17.122Z,1013.63
2023-05-19T08:13:17.184Z,1013.63
2023-05-19T08:14:17.106Z,1013.65
2023-05-19T08:15:17.105Z,1013.62
2023-05-19T08:16:17.185Z,1013.62
2023-05-19T08:17:17.081Z,1013.60
2023-05-19T08:18:17.115Z,1013.60
2023-05-19T08:19:17.100Z,1013.60
2023-05-19T08:20:17.101Z,1013.59
2023-05-19T08:21:17.040Z,1013.58
2023-05-19T08:22:17.080Z,1013.56
2023-05-19T08:23:17.060Z,1013.56
2023-05-19T08:24:17.032Z,1013.57
2023-05-19T08:25:17.350Z,1013.57
2023-05-19T08:26:17.053Z,1013.55
2023-05-19T08:27:17.813Z,1013.54
2023-05-19T08:28:16.970Z,1013.54
2023-05-19T08:29:17.626Z,1013.53
2023-05-19T08:30:16.968Z,1013.54
2023-05-19T08:31:16.998Z,1013.52
2023-05-19T08:32:16.925Z,1013.51
2023-05-19T08:33:16.933Z,1013.49
2023-05-19T08:34:16.938Z,1013.47
2023-05-19T08:35:16.980Z,1013.45
2023-05-19T08:36:16.925Z,1013.44
2023-05-19T08:37:16.871Z,1013.42
2023-05-19T08:38:16.870Z,1013.44
2023-05-19T08:39:16.886Z,1013.40
2023-05-19T08:40:16.841Z,1013.40
2023-05-19T08:41:16.970Z,1013.38
2023-05-19T08:42:16.861Z,1013.37
2023-05-19T08:43:16.847Z,1013.37
2023-05-19T08:44:18.241Z,1013.38
2023-05-19T08:45:16.806Z,1013.36
2023-05-19T08:46:17.046Z,1013.38
2023-05-19T08:47:16.764Z,1013.34
2023-05-19T08:48:16.961Z,1013.36
2023-05-19T08:49:16.888Z,1013.33
2023-05-19T08:50:16.834Z,1013.34
2023-05-19T08:51:16.721Z,1013.33
2023-05-19T08:52:16.718Z,1013.30
2023-05-19T08:53:31.906Z,1013.32
2023-05-19T08:54:16.787Z,1013.30
2023-05-19T08:55:16.719Z,1013.26
2023-05-19T08:56:16.856Z,1013.24
2023-05-19T08:57:16.650Z,1013.24
2023-05-19T08:58:16.645Z,1013.25
2023-05-19T08:59:16.732Z,1013.22
2023-05-19T09:00:16.649Z,1013.22
2023-05-19T09:01:16.744Z,1013.20
2023-05-19T09:02:16.664Z,1013.19
2023-05-19T09:03:22.864Z,1013.16
2023-05-19T09:04:16.732Z,1013.17
2023-05-19T09:05:16.620Z,1013.14
2023-05-19T09:06:16.570Z,1013.16
2023-05-19T09:07:16.564Z,1013.11
2023-05-19T09:08:16.587Z,1013.08
2023-05-19T09:09:16.580Z,1013.07
2023-05-19T09:10:16.551Z,1013.05
2023-05-19T09:11:16.597Z,1013.01
2023-05-19T09:12:16.767Z,1013.01
2023-05-19T09:13:16.516Z,1013.03
2023-05-19T09:14:16.562Z,1013.03
2023-05-19T09:15:16.525Z,1012.98
2023-05-19T09:16:16.515Z,1012.96
2023-05-19T09:17:16.493Z,1012.95
2023-05-19T09:18:16.433Z,1012.95
2023-05-19T09:19:16.551Z,1012.94
2023-05-19T09:20:16.484Z,1012.94
2023-05-19T09:21:16.428Z,1012.94
2023-05-19T09:22:17.132Z,1012.94
2023-05-19T09:23:16.804Z,1012.95
2023-05-19T09:24:16.490Z,1012.94
2023-05-19T09:25:16.372Z,1012.91
2023-05-19T09:26:16.410Z,1012.91
2023-05-19T09:27:16.416Z,1012.92
2023-05-19T09:28:16.331Z,1012.91
2023-05-19T09:29:16.392Z,1012.88
2023-05-19T09:30:16.349Z,1012.86
2023-05-19T09:31:16.318Z,1012.85
2023-05-19T09:32:16.311Z,1012.85
2023-05-19T09:33:16.353Z,1012.84
2023-05-19T09:34:16.275Z,1012.85
2023-05-19T09:35:16.300Z,1012.81
2023-05-19T09:36:16.276Z,1012.80
2023-05-19T09:37:16.276Z,1012.79
2023-05-19T09:38:16.267Z,1012.77
2023-05-19T09:39:16.290Z,1012.78
2023-05-19T09:40:16.201Z,1012.76
2023-05-19T09:41:16.206Z,1012.72
2023-05-19T09:42:16.190Z,1012.69
2023-05-19T09:43:16.186Z,1012.69
2023-05-19T09:44:16.187Z,1012.71
2023-05-19T09:45:16.162Z,1012.68
2023-05-19T09:46:16.146Z,1012.70
2023-05-19T09:47:16.157Z,1012.67
2023-05-19T09:48:16.271Z,1012.69
2023-05-19T09:49:16.135Z,1012.62
2023-05-19T09:50:16.181Z,1012.60
2023-05-19T09:51:16.087Z,1012.60
2023-05-19T09:52:16.102Z,1012.61
2023-05-19T09:53:16.070Z,1012.64
2023-05-19T09:54:16.051Z,1012.64
2023-05-19T09:55:16.071Z,1012.62
2023-05-19T09:56:16.127Z,1012.69
2023-05-19T09:57:16.067Z,1012.61
2023-05-19T09:58:16.048Z,1012.60
2023-05-19T09:59:16.030Z,1012.59
2023-05-19T10:00:16.010Z,1012.60
2023-05-19T10:01:16.011Z,1012.58
2023-05-19T10:02:16.030Z,1012.56
2023-05-19T10:03:16.011Z,1012.51
2023-05-19T10:04:15.953Z,1012.53
2023-05-19T10:05:16.065Z,1012.50
2023-05-19T10:06:15.918Z,1012.51
2023-05-19T10:07:15.952Z,1012.50
2023-05-19T10:08:15.925Z,1012.47
2023-05-19T10:09:15.896Z,1012.46
2023-05-19T10:10:15.886Z,1012.46
2023-05-19T10:11:15.860Z,1012.41
2023-05-19T10:12:15.875Z,1012.44
2023-05-19T10:13:16.116Z,1012.39
2023-05-19T10:14:15.881Z,1012.38
2023-05-19T10:15:15.846Z,1012.42
2023-05-19T10:16:15.861Z,1012.44
2023-05-19T10:17:15.874Z,1012.45
2023-05-19T10:18:15.809Z,1012.43
2023-05-19T10:19:15.899Z,1012.42
2023-05-19T10:20:15.854Z,1012.40
2023-05-19T10:21:15.820Z,1012.40
2023-05-19T10:22:15.781Z,1012.41
2023-05-19T10:23:15.767Z,1012.40
2023-05-19T10:24:15.821Z,1012.41
2023-05-19T10:25:15.884Z,1012.41
2023-05-19T10:26:15.761Z,1012.48
2023-05-19T10:27:15.894Z,1012.39
2023-05-19T10:28:15.748Z,1012.45
2023-05-19T10:29:15.699Z,1012.37
2023-05-19T10:30:16.429Z,1012.36
2023-05-19T10:31:15.702Z,1012.35
2023-05-19T10:32:16.334Z,1012.34
2023-05-19T10:33:15.782Z,1012.31
2023-05-19T10:34:15.665Z,1012.30
2023-05-19T10:35:15.703Z,1012.28
2023-05-19T10:36:15.612Z,1012.29
2023-05-19T10:37:15.872Z,1012.28
2023-05-19T10:38:15.714Z,1012.28
2023-05-19T10:39:15.651Z,1012.27
2023-05-19T10:40:15.687Z,1012.21
2023-05-19T10:41:15.599Z,1012.26
2023-05-19T10:42:15.605Z,1012.23
2023-05-19T10:43:15.551Z,1012.21
2023-05-19T10:44:15.590Z,1012.20
2023-05-19T10:45:15.534Z,1012.18
2023-05-19T10:46:15.540Z,1012.17
2023-05-19T10:47:15.720Z,1012.17
2023-05-19T10:48:15.573Z,1012.21
2023-05-19T10:49:15.532Z,1012.15
2023-05-19T10:50:15.623Z,1012.14
2023-05-19T10:51:17.503Z,1012.19
2023-05-19T10:52:15.536Z,1012.12
2023-05-19T10:53:15.532Z,1012.12
2023-05-19T10:54:15.489Z,1012.10
2023-05-19T10:55:15.460Z,1012.09
2023-05-19T10:56:15.491Z,1012.14
2023-05-19T10:57:15.415Z,1012.09
2023-05-19T10:58:15.665Z,1012.17
2023-05-19T10:59:15.430Z,1012.08
2023-05-19T11:00:15.398Z,1012.11
2023-05-19T11:01:15.678Z,1012.12
2023-05-19T11:02:15.630Z,1012.16
2023-05-19T11:03:15.396Z,1012.17
2023-05-19T11:04:15.379Z,1012.13
2023-05-19T11:05:15.380Z,1012.16
2023-05-19T11:06:19.167Z,1012.22
2023-05-19T11:07:15.361Z,1012.17
2023-05-19T11:08:15.303Z,1012.22
2023-05-19T11:09:15.391Z,1012.22
2023-05-19T11:10:15.311Z,1012.25
2023-05-19T11:11:15.282Z,1012.23
2023-05-19T11:12:15.267Z,1012.24
2023-05-19T11:13:15.260Z,1012.23
2023-05-19T11:14:15.384Z,1012.25
2023-05-19T11:15:16.001Z,1012.23
2023-05-19T11:16:15.272Z,1012.21
2023-05-19T11:17:15.192Z,1012.19
2023-05-19T11:18:19.014Z,1012.21
2023-05-19T11:19:15.299Z,1012.17
2023-05-19T11:20:15.260Z,1012.16
2023-05-19T11:21:15.197Z,1012.16
2023-05-19T11:22:15.209Z,1012.16
2023-05-19T11:23:15.219Z,1012.16
2023-05-19T11:24:15.120Z,1012.08
2023-05-19T11:25:15.136Z,1012.13
2023-05-19T11:26:15.166Z,1012.08
2023-05-19T11:27:15.416Z,1012.11
2023-05-19T11:28:15.078Z,1012.11
2023-05-19T11:29:15.196Z,1012.11
2023-05-19T11:30:15.193Z,1012.08
2023-05-19T11:31:15.062Z,1012.07
2023-05-19T11:32:15.175Z,1012.06
2023-05-19T11:33:15.153Z,1012.04
2023-05-19T11:34:15.066Z,1011.98
2023-05-19T11:35:15.008Z,1012.00
2023-05-19T11:36:15.244Z,1011.99
2023-05-19T11:37:15.028Z,1011.99
2023-05-19T11:38:15.007Z,1012.02
2023-05-19T11:39:16.908Z,1012.02
2023-05-19T11:40:14.948Z,1012.02
2023-05-19T11:41:14.948Z,1012.00
2023-05-19T11:42:14.938Z,1012.04
2023-05-19T11:43:14.964Z,1011.97
2023-05-19T11:44:14.977Z,1011.96
2023-05-19T11:45:14.973Z,1011.89
2023-05-19T11:46:15.248Z,1011.88
2023-05-19T11:47:14.889Z,1011.95
2023-05-19T11:48:14.970Z,1011.95
2023-05-19T11:49:14.874Z,1011.93
2023-05-19T11:50:14.925Z,1011.94
2023-05-19T11:51:14.874Z,1011.94
2023-05-19T11:52:14.837Z,1011.97
2023-05-19T11:53:14.848Z,1011.95
2023-05-19T11:54:14.992Z,1011.92
2023-05-19T11:55:14.831Z,1011.98
2023-05-19T11:56:14.799Z,1011.93
2023-05-19T11:57:14.828Z,1011.95
2023-05-19T11:58:14.767Z,1011.93
2023-05-19T11:59:14.877Z,1011.89
2023-05-19T12:00:14.757Z,1011.84
2023-05-19T12:01:14.734Z,1011.77
2023-05-19T12:02:15.468Z,1011.81
2023-05-19T12:03:16.596Z,1011.78
2023-05-19T12:04:14.729Z,1011.80
2023-05-19T12:05:14.853Z,1011.80